Time;durP1;ratioP1;P1;durP2;ratioP2;P2;SDS_P1;SDS_P2;PMS_P1;PMS_P2;Temp;Humidity;BMP_temperature;BMP_pressure;BME280_temperature;BME280_humidity;BME280_pressure;Samples;Min_cycle;Max_cycle;Signal;HPM_P1;HPM_P2
2021/06/20 00:01:26;;;;;;;19.70;17.70;;;;;;;20.37;100.00;100470.50;5002405;28;20045;-84
2021/06/20 00:03:53;;;;;;;21.25;18.98;;;;;;;20.41;100.00;100468.47;5036156;28;20440;-85
2021/06/20 00:06:32;;;;;;;21.27;18.98;;;;;;;20.41;100.00;100474.69;5018749;28;20048;-85
2021/06/20 00:08:59;;;;;;;19.42;17.50;;;;;;;20.36;100.00;100474.13;5034350;28;20048;-85
2021/06/20 00:11:27;;;;;;;21.38;18.33;;;;;;;20.43;100.00;100466.53;5017061;28;20612;-84
2021/06/20 00:13:54;;;;;;;19.75;17.60;;;;;;;20.34;100.00;100467.97;5018583;28;20080;-85
2021/06/20 00:16:21;;;;;;;22.00;19.27;;;;;;;20.42;100.00;100462.13;5033088;28;20460;-85
2021/06/20 00:18:49;;;;;;;21.33;18.08;;;;;;;20.33;100.00;100460.03;5019422;28;20052;-85
2021/06/20 00:21:16;;;;;;;20.75;18.27;;;;;;;20.25;100.00;100457.84;4999158;28;20045;-85
2021/06/20 00:23:43;;;;;;;21.10;18.88;;;;;;;20.21;100.00;100462.56;5012532;28;20055;-85
2021/06/20 00:26:10;;;;;;;23.67;20.65;;;;;;;20.31;100.00;100467.34;5012508;28;20913;-85
2021/06/20 00:28:37;;;;;;;22.90;19.33;;;;;;;20.33;100.00;100460.91;5019174;28;20044;-86
2021/06/20 00:31:04;;;;;;;25.23;20.02;;;;;;;20.34;100.00;100457.25;5029859;28;20037;-84
2021/06/20 00:33:30;;;;;;;20.80;18.25;;;;;;;20.25;100.00;100464.06;5018058;28;20095;-86
2021/06/20 00:35:58;;;;;;;21.70;19.08;;;;;;;20.21;100.00;100451.81;5003953;28;20049;-85
2021/06/20 00:38:25;;;;;;;21.90;19.65;;;;;;;20.28;100.00;100451.44;5015596;28;20662;-85
2021/06/20 00:40:52;;;;;;;20.05;17.90;;;;;;;20.18;100.00;100449.34;5002677;28;20029;-85
2021/06/20 00:43:19;;;;;;;26.55;21.80;;;;;;;20.14;100.00;100434.41;5020449;28;20040;-85
2021/06/20 00:45:46;;;;;;;23.85;21.05;;;;;;;20.21;100.00;100435.72;5038600;28;20407;-85
2021/06/20 00:48:13;;;;;;;30.48;26.83;;;;;;;20.32;100.00;100426.13;5020733;28;20659;-85
2021/06/20 00:50:41;;;;;;;29.48;24.80;;;;;;;20.36;100.00;100430.34;5017843;28;20068;-84
2021/06/20 00:53:09;;;;;;;27.02;22.38;;;;;;;20.22;100.00;100423.19;5007127;28;20045;-85
2021/06/20 00:55:39;;;;;;;21.98;19.67;;;;;;;20.16;100.00;100426.25;5002984;28;20055;-85
2021/06/20 00:58:07;;;;;;;23.50;21.00;;;;;;;20.17;100.00;100422.59;5026728;28;20115;-84
2021/06/20 01:00:35;;;;;;;23.33;20.63;;;;;;;20.10;100.00;100410.56;5017324;28;20682;-84
2021/06/20 01:03:05;;;;;;;27.23;22.42;;;;;;;20.10;100.00;100402.53;5001603;28;20048;-84
2021/06/20 01:05:31;;;;;;;28.70;25.63;;;;;;;20.16;100.00;100402.97;5018337;28;20052;-85
2021/06/20 01:07:59;;;;;;;26.75;23.88;;;;;;;20.17;100.00;100395.78;5021317;28;20056;-85
2021/06/20 01:10:35;;;;;;;26.13;23.05;;;;;;;20.18;100.00;100405.56;5001275;28;20405;-85
2021/06/20 01:13:11;;;;;;;25.48;22.70;;;;;;;20.07;100.00;100398.19;5035293;28;20548;-86
2021/06/20 01:15:44;;;;;;;26.70;23.88;;;;;;;20.04;100.00;100394.84;5004378;28;20071;-87
2021/06/20 01:18:14;;;;;;;24.67;20.80;;;;;;;20.00;100.00;100399.53;5021354;28;20037;-86
2021/06/20 01:20:42;;;;;;;24.88;21.45;;;;;;;19.96;100.00;100398.88;5022066;28;20063;-86
2021/06/20 01:23:09;;;;;;;27.33;22.85;;;;;;;19.98;100.00;100400.59;5020128;28;20052;-87
2021/06/20 01:25:39;;;;;;;25.02;22.13;;;;;;;19.97;100.00;100389.03;5020089;28;20048;-85
2021/06/20 01:28:09;;;;;;;25.45;22.85;;;;;;;19.97;100.00;100383.66;5040480;28;20586;-84
2021/06/20 01:30:44;;;;;;;29.70;26.50;;;;;;;20.08;100.00;100378.47;5014994;28;20041;-84
2021/06/20 01:33:12;;;;;;;28.75;25.65;;;;;;;20.08;100.00;100369.56;5019306;28;20039;-84
2021/06/20 01:35:39;;;;;;;31.02;27.30;;;;;;;20.08;100.00;100358.81;5017104;28;20053;-84
2021/06/20 01:38:08;;;;;;;26.65;23.77;;;;;;;19.99;100.00;100348.69;5000542;28;20064;-85
2021/06/20 01:40:35;;;;;;;28.38;25.48;;;;;;;20.00;100.00;100345.91;5000488;28;20492;-85
2021/06/20 01:43:02;;;;;;;31.30;26.63;;;;;;;19.92;100.00;100345.53;5001295;28;20049;-85
2021/06/20 01:45:30;;;;;;;28.98;25.77;;;;;;;19.89;100.00;100335.03;5016063;28;20080;-85
2021/06/20 01:47:59;;;;;;;29.17;24.75;;;;;;;19.90;100.00;100328.69;5014518;28;20040;-84
2021/06/20 01:50:26;;;;;;;28.60;25.25;;;;;;;19.90;100.00;100323.34;4998852;28;20048;-85
2021/06/20 01:53:04;;;;;;;24.30;21.75;;;;;;;19.88;100.00;100325.25;5000811;28;20127;-84
2021/06/20 01:55:31;;;;;;;27.08;23.65;;;;;;;19.84;100.00;100326.41;5019623;28;20045;-84
2021/06/20 01:57:57;;;;;;;25.42;22.73;;;;;;;19.74;100.00;100317.25;5014058;28;20670;-84
2021/06/20 02:00:24;;;;;;;26.20;23.50;;;;;;;19.70;100.00;100297.81;4997907;28;20049;-84
2021/06/20 02:02:51;;;;;;;25.90;23.20;;;;;;;19.71;100.00;100296.88;5009730;28;20465;-84
2021/06/20 02:05:23;;;;;;;26.35;23.52;;;;;;;19.71;100.00;100290.63;5019234;28;20076;-85
2021/06/20 02:07:52;;;;;;;32.77;27.23;;;;;;;19.79;100.00;100288.34;5014291;28;20065;-84
2021/06/20 02:10:19;;;;;;;26.83;23.80;;;;;;;19.74;100.00;100290.44;5013454;28;20048;-84
2021/06/20 02:12:49;;;;;;;24.95;22.35;;;;;;;19.70;100.00;100288.94;5033758;28;20045;-85
2021/06/20 02:15:18;;;;;;;25.25;22.08;;;;;;;19.68;100.00;100292.56;5015064;28;20083;-83
2021/06/20 02:17:47;;;;;;;23.98;21.50;;;;;;;19.69;100.00;100290.75;5002105;28;20049;-84
2021/06/20 02:20:17;;;;;;;24.17;21.58;;;;;;;19.62;100.00;100302.81;5022166;28;20715;-84
2021/06/20 02:22:48;;;;;;;25.02;21.52;;;;;;;19.60;100.00;100300.22;5017347;28;20037;-84
2021/06/20 02:25:22;;;;;;;26.17;22.52;;;;;;;19.53;100.00;100314.94;5015980;28;20116;-84
2021/06/20 02:28:00;;;;;;;23.92;21.42;;;;;;;19.52;100.00;100323.94;5015325;28;20065;-84
2021/06/20 02:30:27;;;;;;;25.58;22.58;;;;;;;19.49;100.00;100317.91;4997287;28;20037;-83
2021/06/20 02:33:04;;;;;;;24.08;21.50;;;;;;;19.44;100.00;100320.88;5018243;28;20055;-84
2021/06/20 02:35:33;;;;;;;24.02;21.63;;;;;;;19.44;100.00;100322.69;5011999;28;20046;-85
2021/06/20 02:38:02;;;;;;;25.25;22.55;;;;;;;19.41;100.00;100321.06;4997101;28;20047;-84
2021/06/20 02:40:29;;;;;;;24.75;22.20;;;;;;;19.43;100.00;100320.97;5010808;28;20041;-84
2021/06/20 02:42:58;;;;;;;22.38;19.98;;;;;;;19.42;100.00;100328.13;5000496;28;20494;-84
2021/06/20 02:45:30;;;;;;;24.05;21.45;;;;;;;19.42;100.00;100333.47;5025667;28;20056;-83
2021/06/20 02:48:00;;;;;;;24.13;21.63;;;;;;;19.41;100.00;100337.13;5026964;28;20053;-84
2021/06/20 02:50:26;;;;;;;25.30;22.35;;;;;;;19.36;100.00;100342.78;5027005;28;20067;-84
2021/06/20 02:52:53;;;;;;;25.55;22.42;;;;;;;19.35;100.00;100341.06;5027966;28;20049;-84
2021/06/20 02:55:23;;;;;;;26.30;23.50;;;;;;;19.36;100.00;100342.78;5028470;28;20045;-83
2021/06/20 02:57:50;;;;;;;22.38;20.05;;;;;;;19.31;100.00;100346.69;5004736;28;20053;-84
2021/06/20 03:00:17;;;;;;;24.00;21.48;;;;;;;19.27;100.00;100345.19;5009305;28;20041;-84
2021/06/20 03:02:47;;;;;;;25.70;22.98;;;;;;;19.25;100.00;100341.72;5037781;28;20068;-85
2021/06/20 03:05:13;;;;;;;25.33;22.63;;;;;;;19.31;100.00;100341.34;5008460;28;20119;-84
2021/06/20 03:07:40;;;;;;;26.02;22.80;;;;;;;19.29;100.00;100333.41;5022567;28;20057;-83
2021/06/20 03:10:10;;;;;;;24.45;21.85;;;;;;;19.31;100.00;100342.19;5014758;28;20056;-84
2021/06/20 03:12:37;;;;;;;27.80;24.90;;;;;;;19.37;100.00;100336.47;5005667;28;20052;-84
2021/06/20 03:15:04;;;;;;;30.83;25.08;;;;;;;19.37;100.00;100336.47;5024018;28;20667;-85
2021/06/20 03:17:33;;;;;;;26.95;24.13;;;;;;;19.42;100.00;100330.81;5009932;28;20048;-85
2021/06/20 03:20:05;;;;;;;26.23;23.42;;;;;;;19.45;100.00;100322.59;5015968;28;20112;-86
2021/06/20 03:22:34;;;;;;;28.17;25.17;;;;;;;19.47;100.00;100312.63;5032263;28;20044;-85
2021/06/20 03:25:01;;;;;;;27.05;24.15;;;;;;;19.50;100.00;100303.53;5033635;28;21850;-87
2021/06/20 03:27:28;;;;;;;26.30;23.45;;;;;;;19.45;100.00;100300.31;5036523;28;20089;-86
2021/06/20 03:29:55;;;;;;;24.65;22.15;;;;;;;19.46;100.00;100302.03;5017723;28;20132;-86
2021/06/20 03:32:22;;;;;;;25.02;22.42;;;;;;;19.46;100.00;100291.31;5010995;28;20052;-86
2021/06/20 03:34:52;;;;;;;24.95;22.27;;;;;;;19.44;100.00;100286.06;5065602;22;20041;31
2021/06/20 03:37:27;;;;;;;23.10;20.67;;;;;;;19.44;100.00;100290.56;5049408;28;20041;-86
2021/06/20 03:39:54;;;;;;;26.55;23.55;;;;;;;19.48;100.00;100292.91;5007556;28;20116;-86
2021/06/20 03:42:20;;;;;;;26.30;22.92;;;;;;;19.49;100.00;100285.75;5005712;28;20117;-85
2021/06/20 03:44:47;;;;;;;25.00;22.20;;;;;;;19.55;100.00;100301.44;5008199;28;20099;-86
2021/06/20 03:47:14;;;;;;;26.00;23.30;;;;;;;19.58;100.00;100296.75;5004662;28;20292;-86
2021/06/20 03:49:44;;;;;;;26.27;23.48;;;;;;;19.64;100.00;100301.75;5023932;28;20079;-82
2021/06/20 03:52:11;;;;;;;24.23;21.77;;;;;;;19.70;100.00;100305.88;5023363;28;20044;-84
2021/06/20 03:54:38;;;;;;;22.65;20.25;;;;;;;19.66;100.00;100312.38;5054886;28;20378;-83
2021/06/20 03:57:06;;;;;;;24.10;20.45;;;;;;;19.71;100.00;100309.41;4998826;28;20084;-84
2021/06/20 03:59:33;;;;;;;25.17;22.58;;;;;;;19.75;100.00;100313.59;5034497;28;20041;-84
2021/06/20 04:02:02;;;;;;;23.85;21.45;;;;;;;19.77;100.00;100311.69;5022706;28;20041;-83
2021/06/20 04:04:29;;;;;;;22.83;20.45;;;;;;;19.78;100.00;100308.06;5022346;28;20048;-84
2021/06/20 04:06:56;;;;;;;28.17;25.13;;;;;;;19.89;100.00;100305.53;5017460;28;20108;-84
2021/06/20 04:09:28;;;;;;;24.30;21.80;;;;;;;19.89;100.00;100284.09;5022740;28;20044;-85
2021/06/20 04:11:57;;;;;;;28.48;25.42;;;;;;;19.98;100.00;100283.47;5035051;28;20028;-84
2021/06/20 04:14:26;;;;;;;32.75;28.58;;;;;;;20.06;100.00;100281.16;5005795;28;20151;-84
2021/06/20 04:16:56;;;;;;;24.77;22.05;;;;;;;20.06;100.00;100266.88;5005239;28;20037;-84
2021/06/20 04:19:22;;;;;;;28.50;25.50;;;;;;;20.10;100.00;100253.19;5034943;28;20049;-84
2021/06/20 04:21:52;;;;;;;29.23;25.90;;;;;;;20.15;100.00;100244.81;5032512;28;20068;-84
2021/06/20 04:24:21;;;;;;;26.20;23.35;;;;;;;20.23;100.00;100248.72;5021057;28;20037;-84
2021/06/20 04:26:57;;;;;;;26.40;23.75;;;;;;;20.25;100.00;100251.28;5034198;28;20081;-84
2021/06/20 04:29:24;;;;;;;29.85;26.45;;;;;;;20.25;100.00;100244.09;5617911;22;20061;-84
2021/06/20 04:31:51;;;;;;;30.88;26.58;;;;;;;20.28;100.00;100232.31;5018010;28;20041;-88
2021/06/20 04:34:43;;;;;;;29.45;25.80;;;;;;;20.36;100.00;100235.34;5244262;22;20015;31
2021/06/20 04:37:11;;;;;;;25.67;22.95;;;;;;;20.42;100.00;100234.06;4993409;28;20112;-86
2021/06/20 04:39:39;;;;;;;28.42;25.40;;;;;;;20.59;100.00;100228.41;4996774;28;20046;-86
2021/06/20 04:42:11;;;;;;;30.20;26.97;;;;;;;20.67;100.00;100230.56;5000495;28;20564;-86
2021/06/20 04:44:52;;;;;;;32.72;29.33;;;;;;;20.94;100.00;100238.56;5001052;28;20075;-86
2021/06/20 04:47:22;;;;;;;29.60;26.45;;;;;;;20.93;100.00;100245.72;5001567;28;20843;-85
2021/06/20 04:49:52;;;;;;;33.53;29.45;;;;;;;21.03;100.00;100248.66;4999949;28;20144;-85
2021/06/20 04:52:21;;;;;;;31.05;27.85;;;;;;;21.11;100.00;100248.97;5009226;28;20042;-85
2021/06/20 04:54:54;;;;;;;32.17;28.67;;;;;;;21.25;100.00;100250.66;4995368;28;20061;-85
2021/06/20 04:57:29;;;;;;;27.73;24.85;;;;;;;21.28;100.00;100255.88;4992627;28;20100;-85
2021/06/20 05:00:02;;;;;;;31.80;28.45;;;;;;;21.30;100.00;100252.09;4996686;28;20049;-86
2021/06/20 05:02:33;;;;;;;29.08;25.98;;;;;;;21.35;100.00;100246.38;5015781;28;20705;-87
2021/06/20 05:05:01;;;;;;;31.95;28.65;;;;;;;21.51;100.00;100238.06;5012574;28;20049;-84
2021/06/20 05:07:30;;;;;;;33.00;29.63;;;;;;;21.60;100.00;100232.88;4977203;28;20116;-85
2021/06/20 05:10:00;;;;;;;31.23;28.05;;;;;;;21.55;100.00;100231.50;4992143;28;20117;-84
2021/06/20 05:12:27;;;;;;;29.77;26.85;;;;;;;21.60;100.00;100230.19;4979358;28;20761;-85
2021/06/20 05:14:54;;;;;;;32.58;29.10;;;;;;;21.86;100.00;100219.34;5009093;28;20474;-85
2021/06/20 05:17:21;;;;;;;27.95;25.23;;;;;;;22.02;100.00;100208.28;4990876;28;20588;-83
2021/06/20 05:19:54;;;;;;;26.67;23.98;;;;;;;22.60;100.00;100214.66;5005678;28;20043;-84
2021/06/20 05:22:26;;;;;;;25.83;23.27;;;;;;;23.01;100.00;100197.97;4990464;28;20073;-86
2021/06/20 05:24:52;;;;;;;26.80;24.05;;;;;;;23.10;100.00;100202.63;5004686;28;20050;-84
2021/06/20 05:27:26;;;;;;;25.70;22.98;;;;;;;23.31;98.29;100200.06;5003716;28;20042;-85
2021/06/20 05:29:58;;;;;;;25.40;22.83;;;;;;;23.26;96.62;100195.03;4986040;28;20046;-85
2021/06/20 05:32:27;;;;;;;24.48;22.08;;;;;;;23.31;99.17;100205.44;5000663;28;20038;-83
2021/06/20 05:34:54;;;;;;;24.92;22.52;;;;;;;23.37;95.17;100194.13;5009331;28;20077;-83
2021/06/20 05:37:23;;;;;;;25.45;22.88;;;;;;;23.43;99.92;100207.13;4988740;28;20503;-82
2021/06/20 05:39:55;;;;;;;24.67;22.38;;;;;;;23.36;91.57;100211.31;4992837;28;20069;-82
2021/06/20 05:42:22;;;;;;;25.38;23.02;;;;;;;23.75;96.91;100220.72;5007820;28;20041;-82
2021/06/20 05:44:54;;;;;;;23.33;21.15;;;;;;;24.30;95.31;100226.03;5074664;22;20088;31
2021/06/20 05:50:55;;;;;;;21.63;19.63;;;;;;;26.25;79.43;100235.78;5081311;28;20546;-81
2021/06/20 05:53:22;;;;;;;21.45;19.63;;;;;;;26.77;75.67;100236.34;5074480;28;20046;-82
2021/06/20 05:55:49;;;;;;;20.98;19.00;;;;;;;26.95;76.20;100228.28;5055210;28;20101;-80
2021/06/20 05:58:15;;;;;;;21.40;19.55;;;;;;;26.61;73.55;100220.66;5071508;28;20037;-81
2021/06/20 06:00:42;;;;;;;21.55;19.63;;;;;;;26.74;76.07;100220.38;5083301;28;20446;-81
2021/06/20 06:03:09;;;;;;;20.88;19.02;;;;;;;26.61;73.64;100226.09;5072261;28;20089;-82
2021/06/20 06:05:36;;;;;;;21.83;19.85;;;;;;;26.60;77.74;100237.94;5072557;28;20065;-81
2021/06/20 06:08:02;;;;;;;22.83;20.73;;;;;;;26.46;79.22;100242.94;5088019;28;20097;-81
2021/06/20 06:10:29;;;;;;;20.75;18.88;;;;;;;26.17;79.71;100229.38;5054384;28;20048;-82
2021/06/20 06:12:57;;;;;;;22.55;20.60;;;;;;;25.72;79.47;100209.06;5057584;28;20040;-81
2021/06/20 06:15:25;;;;;;;21.55;19.75;;;;;;;25.78;82.85;100222.03;5056582;28;21023;-80
2021/06/20 06:17:52;;;;;;;21.52;19.73;;;;;;;25.68;84.63;100226.56;5059468;28;20044;-81
2021/06/20 06:20:19;;;;;;;23.75;21.50;;;;;;;25.84;80.56;100230.63;5088562;28;20044;-81
2021/06/20 06:22:47;;;;;;;25.15;22.83;;;;;;;25.92;85.69;100228.06;5071427;28;20111;-81
2021/06/20 06:25:14;;;;;;;23.05;20.83;;;;;;;25.96;81.45;100224.06;5050241;28;20052;-82
2021/06/20 06:27:42;;;;;;;22.95;20.90;;;;;;;25.99;84.49;100237.34;5067431;28;20146;-81
2021/06/20 06:30:10;;;;;;;45.17;35.90;;;;;;;25.95;80.49;100238.59;5083294;28;20516;-81
2021/06/20 06:32:37;;;;;;;25.15;22.65;;;;;;;25.89;82.40;100250.81;5069921;28;20040;-82
2021/06/20 06:35:05;;;;;;;24.70;22.48;;;;;;;25.93;87.05;100246.88;5067041;28;20566;-82
2021/06/20 06:37:32;;;;;;;22.58;20.58;;;;;;;25.91;84.63;100248.00;5069243;28;20302;-82
2021/06/20 06:39:58;;;;;;;23.38;21.27;;;;;;;25.76;84.18;100242.97;5045227;28;20444;-80
2021/06/20 06:42:28;;;;;;;24.02;21.60;;;;;;;25.98;81.40;100238.31;5084549;28;20032;-81
2021/06/20 06:44:56;;;;;;;24.60;21.95;;;;;;;25.85;82.96;100237.72;5067195;28;20044;-81
2021/06/20 06:47:28;;;;;;;23.73;21.52;;;;;;;25.96;85.88;100237.59;5070816;28;20123;-81
2021/06/20 06:49:55;;;;;;;23.42;21.33;;;;;;;25.85;83.10;100233.16;5052216;28;20059;-81
2021/06/20 06:52:22;;;;;;;22.42;20.50;;;;;;;25.80;85.85;100236.28;5081249;28;20117;-81
2021/06/20 06:54:53;;;;;;;24.55;22.35;;;;;;;25.95;88.94;100230.47;5069019;28;20040;-80
2021/06/20 06:57:21;;;;;;;23.95;21.83;;;;;;;25.89;89.17;100228.31;5071231;28;20040;-81
2021/06/20 06:59:52;;;;;;;24.63;21.80;;;;;;;25.84;85.10;100230.63;5070031;28;20071;-79
2021/06/20 07:02:22;;;;;;;22.33;20.27;;;;;;;26.00;82.76;100218.25;5082805;28;20039;-81
2021/06/20 07:04:49;;;;;;;23.00;20.88;;;;;;;26.22;85.50;100216.25;5055322;28;20097;-81
2021/06/20 07:07:20;;;;;;;24.00;21.65;;;;;;;26.50;88.54;100214.56;5049447;28;20047;-81
2021/06/20 07:09:47;;;;;;;23.02;21.02;;;;;;;26.71;75.36;100209.81;5085418;28;20032;-81
2021/06/20 07:12:14;;;;;;;22.35;20.23;;;;;;;26.80;81.58;100202.66;5088097;28;20040;-83
2021/06/20 07:14:41;;;;;;;21.65;19.65;;;;;;;26.79;79.39;100203.66;5060392;28;20054;-80
2021/06/20 07:17:09;;;;;;;23.08;21.05;;;;;;;26.96;83.09;100205.59;5058367;28;20511;-82
2021/06/20 07:19:36;;;;;;;22.90;20.90;;;;;;;27.20;82.87;100205.97;5085412;28;20444;-80
2021/06/20 07:22:03;;;;;;;21.30;19.30;;;;;;;27.24;71.71;100206.50;5072993;28;20048;-83
2021/06/20 07:24:30;;;;;;;23.08;21.05;;;;;;;26.99;76.94;100207.16;5077834;28;20098;-82
2021/06/20 07:26:57;;;;;;;23.05;20.90;;;;;;;27.16;80.15;100214.56;5056402;28;20042;-81
2021/06/20 07:29:23;;;;;;;22.33;20.42;;;;;;;27.20;83.97;100218.69;5055528;28;20046;-82
2021/06/20 07:31:50;;;;;;;23.13;20.90;;;;;;;27.20;84.76;100216.81;5064659;28;20077;-83
2021/06/20 07:34:17;;;;;;;22.58;20.48;;;;;;;27.37;80.31;100217.88;5057149;28;20048;-81
2021/06/20 07:36:45;;;;;;;21.88;19.92;;;;;;;27.39;79.59;100205.03;5090110;28;20481;-85
2021/06/20 07:39:11;;;;;;;21.27;19.38;;;;;;;27.56;79.79;100199.78;5104652;28;20685;-83
2021/06/20 07:41:38;;;;;;;21.65;19.58;;;;;;;27.55;73.50;100192.66;5092324;28;20107;-82
2021/06/20 07:44:05;;;;;;;22.02;20.13;;;;;;;27.58;77.18;100195.06;5078383;28;20076;-84
2021/06/20 07:46:32;;;;;;;22.13;20.25;;;;;;;27.72;77.50;100189.16;5058754;28;20439;-85
2021/06/20 07:48:59;;;;;;;22.13;20.13;;;;;;;27.95;70.99;100189.56;5060933;28;20043;-84
2021/06/20 07:51:26;;;;;;;21.50;19.52;;;;;;;27.90;65.60;100186.44;5066863;28;20070;-86
2021/06/20 07:53:53;;;;;;;21.45;19.38;;;;;;;28.10;68.70;100179.88;5056454;28;20045;-85
2021/06/20 07:56:20;;;;;;;21.30;19.38;;;;;;;28.23;64.10;100168.59;5060640;28;20652;-85
2021/06/20 07:58:48;;;;;;;20.88;19.02;;;;;;;28.30;65.68;100167.00;5074904;28;20527;-83
2021/06/20 08:01:23;;;;;;;21.20;19.30;;;;;;;28.35;67.73;100163.81;5074457;28;20040;-83
2021/06/20 08:03:51;;;;;;;21.00;19.25;;;;;;;28.48;67.82;100154.22;5068989;28;20508;-83
2021/06/20 08:06:25;;;;;;;22.20;19.90;;;;;;;28.76;63.86;100157.66;5052476;28;20035;-84
2021/06/20 08:09:00;;;;;;;22.17;20.10;;;;;;;28.98;64.60;100147.25;5059207;28;20035;-84
2021/06/20 08:11:34;;;;;;;20.08;18.35;;;;;;;29.16;65.08;100151.59;5083515;28;20046;-84
2021/06/20 08:14:05;;;;;;;21.73;19.92;;;;;;;29.17;60.46;100152.44;5058017;28;20457;-84
2021/06/20 08:16:32;;;;;;;19.52;17.73;;;;;;;29.22;61.01;100154.69;5053842;28;20154;-83
2021/06/20 08:19:04;;;;;;;19.95;18.02;;;;;;;29.17;65.73;100155.16;5074762;28;20036;-83
2021/06/20 08:21:31;;;;;;;20.55;18.65;;;;;;;29.12;70.02;100152.94;5071309;28;20131;-85
2021/06/20 08:23:58;;;;;;;18.73;17.15;;;;;;;29.09;69.11;100147.84;5057629;28;20231;-83
2021/06/20 08:26:30;;;;;;;20.95;19.05;;;;;;;29.09;63.02;100138.81;5069160;28;20044;-85
2021/06/20 08:28:58;;;;;;;21.10;18.90;;;;;;;28.87;60.27;100132.06;5077053;28;20465;-87
2021/06/20 08:31:24;;;;;;;19.27;17.55;;;;;;;28.85;65.81;100126.78;5070916;28;20064;-84
2021/06/20 08:33:54;;;;;;;20.95;19.08;;;;;;;29.10;61.97;100122.34;5090411;28;20083;-85
2021/06/20 08:36:21;;;;;;;21.10;19.30;;;;;;;29.00;59.68;100126.19;5088505;28;20130;-88
2021/06/20 08:38:50;;;;;;;21.27;19.45;;;;;;;28.99;58.88;100140.81;5066352;28;20071;-85
2021/06/20 08:41:17;;;;;;;20.23;18.48;;;;;;;29.35;59.75;100123.28;5074323;28;20074;-84
2021/06/20 08:43:44;;;;;;;19.88;18.17;;;;;;;29.57;58.57;100116.38;5055755;28;20086;-83
2021/06/20 08:46:13;;;;;;;19.35;17.75;;;;;;;29.73;58.46;100120.16;5051729;28;20041;-85
2021/06/20 08:48:45;;;;;;;20.25;18.13;;;;;;;30.00;59.69;100114.38;5052318;28;20048;-84
2021/06/20 08:51:17;;;;;;;18.75;17.15;;;;;;;30.27;62.32;100118.69;5056984;28;20035;-84
2021/06/20 08:53:53;;;;;;;18.63;16.92;;;;;;;30.53;60.36;100115.75;5055436;28;20060;-83
2021/06/20 08:56:20;;;;;;;19.75;17.75;;;;;;;30.66;56.96;100115.22;5087154;28;20036;-84
2021/06/20 08:58:47;;;;;;;19.02;17.45;;;;;;;30.81;57.81;100108.03;5068567;28;20132;-82
2021/06/20 09:01:14;;;;;;;18.23;16.50;;;;;;;30.70;54.03;100103.81;5071756;28;20055;-83
2021/06/20 09:03:50;;;;;;;17.63;16.13;;;;;;;30.65;52.27;100105.31;5073550;28;20076;-84
2021/06/20 09:06:24;;;;;;;17.85;16.30;;;;;;;30.59;52.40;100106.84;5058046;28;20062;-84
2021/06/20 09:09:05;;;;;;;18.40;16.88;;;;;;;30.51;51.67;100101.41;5054420;28;20039;-83
2021/06/20 09:11:35;;;;;;;18.25;16.52;;;;;;;30.53;53.41;100096.66;5078863;28;20051;-84
2021/06/20 09:14:14;;;;;;;17.70;16.00;;;;;;;30.60;51.91;100099.53;5084900;28;20047;-83
2021/06/20 09:16:50;;;;;;;17.50;15.73;;;;;;;30.75;51.23;100095.94;5067142;28;20087;-84
2021/06/20 09:19:31;;;;;;;18.15;16.63;;;;;;;30.79;51.78;100094.56;5054108;28;20048;-83
2021/06/20 09:22:04;;;;;;;16.45;14.98;;;;;;;30.93;52.79;100103.03;5070402;28;20412;-85
2021/06/20 09:24:34;;;;;;;16.20;14.82;;;;;;;30.97;51.91;100097.06;5052356;28;20060;-83
2021/06/20 09:27:05;;;;;;;16.73;15.40;;;;;;;31.04;51.64;100087.13;5070511;28;20078;-83
2021/06/20 09:29:44;;;;;;;16.80;15.50;;;;;;;31.17;52.36;100082.97;5081048;28;20451;-83
2021/06/20 09:32:11;;;;;;;17.35;15.95;;;;;;;31.31;49.27;100077.66;5084048;28;20044;-83
2021/06/20 09:34:50;;;;;;;16.63;15.23;;;;;;;31.50;50.98;100086.41;5089262;28;20059;-83
2021/06/20 09:37:21;;;;;;;17.48;15.57;;;;;;;31.65;49.22;100090.91;5055839;28;20135;-83
2021/06/20 09:39:55;;;;;;;17.60;16.00;;;;;;;31.70;49.91;100079.44;5073162;28;20050;-84
2021/06/20 09:42:22;;;;;;;15.98;14.45;;;;;;;31.78;51.95;100089.47;5070771;28;20477;-84
2021/06/20 09:44:54;;;;;;;17.77;16.08;;;;;;;31.74;48.28;100086.22;5050378;28;20070;-83
2021/06/20 09:47:22;;;;;;;16.02;14.75;;;;;;;31.78;49.93;100094.94;5068746;28;20059;-83
2021/06/20 09:49:52;;;;;;;16.35;15.02;;;;;;;31.88;50.50;100099.13;5070478;28;20050;-82
2021/06/20 09:52:33;;;;;;;16.92;15.30;;;;;;;32.11;50.60;100090.03;5052757;28;20570;-84
2021/06/20 09:55:11;;;;;;;16.23;14.82;;;;;;;32.25;45.71;100080.19;5057426;28;20039;-85
2021/06/20 09:57:39;;;;;;;15.70;14.40;;;;;;;32.34;47.85;100077.22;5069295;28;20044;-83
2021/06/20 10:00:07;;;;;;;15.52;14.23;;;;;;;32.32;46.24;100070.25;5086178;28;20032;-84
2021/06/20 10:02:39;;;;;;;15.88;14.43;;;;;;;32.38;51.51;100070.34;5072255;28;20093;-82
2021/06/20 10:05:10;;;;;;;15.13;13.93;;;;;;;32.40;45.82;100065.53;5070433;28;20044;-83
2021/06/20 10:07:37;;;;;;;15.82;14.50;;;;;;;32.49;47.62;100067.16;5054326;28;20063;-82
2021/06/20 10:10:07;;;;;;;15.63;14.40;;;;;;;32.75;47.30;100077.63;5069706;28;20040;-83
2021/06/20 10:12:34;;;;;;;15.20;14.00;;;;;;;32.87;43.76;100061.59;5071412;28;20036;-83
2021/06/20 10:15:02;;;;;;;16.10;14.85;;;;;;;32.87;44.16;100077.16;5086415;28;20036;-82
2021/06/20 10:17:34;;;;;;;15.80;14.57;;;;;;;33.15;43.35;100077.34;5052271;28;20063;-83
2021/06/20 10:20:06;;;;;;;35.35;28.73;;;;;;;33.29;41.83;100069.06;5066561;28;20638;-84
2021/06/20 10:22:43;;;;;;;16.45;15.07;;;;;;;33.36;40.86;100071.03;5069926;28;20066;-84
2021/06/20 10:25:24;;;;;;;31.73;28.42;;;;;;;33.14;41.34;100072.91;5055894;28;20044;-85
2021/06/20 10:28:04;;;;;;;16.55;14.93;;;;;;;33.33;42.26;100066.81;5074236;28;20064;-85
2021/06/20 10:30:35;;;;;;;16.95;15.65;;;;;;;33.37;43.63;100072.75;5071393;28;20048;-84
2021/06/20 10:33:08;;;;;;;17.25;15.85;;;;;;;33.50;40.75;100076.50;5089474;28;20047;-83
2021/06/20 10:35:36;;;;;;;17.83;16.27;;;;;;;33.59;42.16;100077.22;5084825;28;20082;-82
2021/06/20 10:38:03;;;;;;;18.40;16.80;;;;;;;33.58;42.18;100075.53;5069302;28;20050;-83
2021/06/20 10:40:31;;;;;;;17.92;16.30;;;;;;;33.54;43.75;100079.69;5054435;28;20079;-81
2021/06/20 10:43:13;;;;;;;21.27;19.38;;;;;;;33.41;42.33;100085.88;5053508;28;20115;-83
2021/06/20 10:45:40;;;;;;;20.95;19.13;;;;;;;33.26;43.26;100082.31;5072914;28;20431;-83
2021/06/20 10:48:16;;;;;;;21.40;19.60;;;;;;;33.33;41.98;100075.84;5050472;28;20048;-81
2021/06/20 10:50:46;;;;;;;21.50;19.75;;;;;;;33.36;43.58;100071.88;5067655;28;20044;-83
2021/06/20 10:53:15;;;;;;;24.15;22.33;;;;;;;33.29;42.81;100079.16;5071635;28;20044;-83
2021/06/20 10:55:43;;;;;;;21.30;19.45;;;;;;;33.32;42.68;100084.28;5071145;28;20044;-82
2021/06/20 10:58:24;;;;;;;21.00;19.30;;;;;;;33.52;43.53;100073.56;5090847;28;20082;-82
2021/06/20 11:01:04;;;;;;;29.88;26.73;;;;;;;33.68;43.28;100070.56;5084361;28;20066;-82
2021/06/20 11:03:31;;;;;;;23.13;21.00;;;;;;;33.74;41.70;100069.78;5083779;28;20037;-84
2021/06/20 11:06:05;;;;;;;35.85;32.30;;;;;;;33.89;41.58;100080.72;5085502;28;20139;-82
2021/06/20 11:08:37;;;;;;;24.08;21.95;;;;;;;33.92;41.69;100079.47;5090401;28;20058;-83
2021/06/20 11:11:07;;;;;;;17.05;15.65;;;;;;;34.00;40.30;100066.47;5071637;28;20036;-83
2021/06/20 11:13:34;;;;;;;16.50;15.02;;;;;;;34.18;42.59;100081.59;5086354;28;20036;-83
2021/06/20 11:16:03;;;;;;;17.42;15.32;;;;;;;34.04;39.17;100081.47;5073427;28;20063;-83
2021/06/20 11:18:30;;;;;;;14.93;13.68;;;;;;;34.12;39.98;100078.59;5057228;28;20048;-83